createdAt,value
2022-11-25T00:01:18.861Z,20.33
2022-11-25T00:03:46.665Z,20.73
2022-11-25T00:06:19.281Z,19.23
2022-11-25T00:08:47.904Z,20.37
2022-11-25T00:11:14.537Z,21.13
2022-11-25T00:13:41.788Z,21.43
2022-11-25T00:16:10.783Z,21.30
2022-11-25T00:18:37.416Z,18.40
2022-11-25T00:21:08.715Z,19.23
2022-11-25T00:23:35.902Z,19.47
2022-11-25T00:26:10.035Z,19.77
2022-11-25T00:28:38.543Z,18.97
2022-11-25T00:31:11.184Z,17.97
2022-11-25T00:33:38.296Z,17.57
2022-11-25T00:36:06.105Z,18.83
2022-11-25T00:38:32.554Z,20.13
2022-11-25T00:41:17.669Z,19.60
2022-11-25T00:44:02.778Z,17.63
2022-11-25T00:46:29.191Z,17.93
2022-11-25T00:48:55.621Z,16.73
2022-11-25T00:51:22.034Z,17.80
2022-11-25T00:53:48.519Z,16.33
2022-11-25T00:56:15.233Z,17.63
2022-11-25T00:58:43.165Z,15.87
2022-11-25T01:01:10.411Z,16.27
2022-11-25T01:03:37.398Z,15.63
2022-11-25T01:06:08.842Z,16.53
2022-11-25T01:08:36.588Z,15.37
2022-11-25T01:11:09.147Z,15.20
2022-11-25T01:13:35.563Z,16.27
2022-11-25T01:16:03.649Z,16.63
2022-11-25T01:18:30.743Z,15.80
2022-11-25T01:21:18.383Z,15.43
2022-11-25T01:23:45.342Z,14.63
2022-11-25T01:26:18.845Z,14.20
2022-11-25T01:28:45.632Z,15.23
2022-11-25T01:31:19.415Z,13.40
2022-11-25T01:33:47.023Z,14.50
2022-11-25T01:36:16.382Z,13.40
2022-11-25T01:38:43.637Z,13.30
2022-11-25T01:41:12.524Z,13.40
2022-11-25T01:43:39.400Z,14.27
2022-11-25T01:46:22.187Z,13.03
2022-11-25T01:48:55.025Z,12.73
2022-11-25T01:51:28.655Z,12.33
2022-11-25T01:53:58.221Z,14.27
2022-11-25T01:56:26.381Z,14.10
2022-11-25T01:58:53.013Z,13.93
2022-11-25T02:01:21.633Z,13.33
2022-11-25T02:03:51.056Z,13.37
2022-11-25T02:06:24.780Z,12.77
2022-11-25T02:08:54.071Z,12.13
2022-11-25T02:11:21.241Z,13.97
2022-11-25T02:13:49.270Z,11.67
2022-11-25T02:16:15.828Z,12.60
2022-11-25T02:18:42.475Z,12.20
2022-11-25T02:21:09.138Z,13.00
2022-11-25T02:23:53.765Z,13.00
2022-11-25T02:26:20.904Z,11.50
2022-11-25T02:28:47.429Z,12.20
2022-11-25T02:31:20.169Z,11.73
2022-11-25T02:33:46.628Z,11.23
2022-11-25T02:36:16.092Z,12.17
2022-11-25T02:38:44.316Z,11.33
2022-11-25T02:41:13.729Z,11.50
2022-11-25T02:43:41.224Z,11.33
2022-11-25T02:46:17.420Z,11.33
2022-11-25T02:49:08.019Z,10.30
2022-11-25T02:51:34.045Z,10.20
2022-11-25T02:54:01.524Z,11.07
2022-11-25T02:56:30.497Z,10.87
2022-11-25T02:58:57.020Z,11.00
2022-11-25T03:01:24.008Z,9.57
2022-11-25T03:03:51.616Z,11.07
2022-11-25T03:06:18.021Z,9.70
2022-11-25T03:08:44.650Z,9.80
2022-11-25T03:11:11.147Z,9.50
2022-11-25T03:13:37.543Z,9.50
2022-11-25T03:16:04.332Z,9.70
2022-11-25T03:18:30.801Z,8.63
2022-11-25T03:20:57.356Z,9.37
2022-11-25T03:23:24.550Z,8.87
2022-11-25T03:25:51.159Z,9.30
2022-11-25T03:28:17.586Z,9.07
2022-11-25T03:30:44.061Z,9.23
2022-11-25T03:33:10.474Z,9.27
2022-11-25T03:35:36.911Z,8.63
2022-11-25T03:38:03.443Z,8.90
2022-11-25T03:40:29.884Z,9.03
2022-11-25T03:42:56.359Z,8.97
2022-11-25T03:45:22.761Z,8.13
2022-11-25T03:47:49.153Z,8.37
2022-11-25T03:50:16.284Z,8.47
2022-11-25T03:52:42.893Z,8.83
2022-11-25T03:55:10.033Z,7.90
2022-11-25T03:57:36.485Z,9.13
2022-11-25T04:00:04.447Z,7.70
2022-11-25T04:02:30.897Z,9.27
2022-11-25T04:04:57.442Z,8.63
2022-11-25T04:07:23.905Z,8.20
2022-11-25T04:09:50.447Z,7.87
2022-11-25T04:12:35.446Z,7.60
2022-11-25T04:15:01.840Z,6.83
2022-11-25T04:17:28.239Z,6.70
2022-11-25T04:19:54.646Z,7.60
2022-11-25T04:22:21.064Z,7.93
2022-11-25T04:24:47.556Z,7.60
2022-11-25T04:27:14.126Z,7.40
2022-11-25T04:29:40.663Z,6.30
2022-11-25T04:32:07.344Z,6.83
2022-11-25T04:34:34.093Z,6.50
2022-11-25T04:37:00.862Z,6.27
2022-11-25T04:39:27.276Z,6.60
2022-11-25T04:42:13.669Z,6.17
2022-11-25T04:44:40.084Z,6.53
2022-11-25T04:47:06.615Z,6.20
2022-11-25T04:49:33.097Z,6.60
2022-11-25T04:51:59.623Z,6.77
2022-11-25T04:54:26.099Z,7.07
2022-11-25T04:56:52.509Z,6.67
2022-11-25T04:59:37.565Z,6.60
2022-11-25T05:02:04.131Z,6.70
2022-11-25T05:04:30.747Z,6.07
2022-11-25T05:06:57.202Z,6.73
2022-11-25T05:09:23.586Z,5.93
2022-11-25T05:11:50.123Z,6.53
2022-11-25T05:14:16.681Z,6.63
2022-11-25T05:16:43.129Z,6.37
2022-11-25T05:19:09.589Z,6.43
2022-11-25T05:21:36.122Z,5.80
2022-11-25T05:24:02.642Z,6.40
2022-11-25T05:26:29.024Z,6.17
2022-11-25T05:28:55.469Z,6.17
2022-11-25T05:31:21.921Z,6.70
2022-11-25T05:33:48.413Z,6.27
2022-11-25T05:36:14.790Z,6.30
2022-11-25T05:38:41.213Z,6.47
2022-11-25T05:41:08.022Z,6.47
2022-11-25T05:43:35.202Z,5.70
2022-11-25T05:46:07.665Z,6.30
2022-11-25T05:48:34.085Z,6.30
2022-11-25T05:51:04.256Z,6.60
2022-11-25T05:53:31.195Z,6.10
2022-11-25T05:55:59.659Z,6.10
2022-11-25T05:58:26.612Z,6.00
2022-11-25T06:00:53.058Z,5.70
2022-11-25T06:03:19.583Z,6.33
2022-11-25T06:05:46.156Z,6.07
2022-11-25T06:08:12.692Z,5.60
2022-11-25T06:10:42.972Z,5.90
2022-11-25T06:13:09.711Z,5.60
2022-11-25T06:15:41.439Z,5.60
2022-11-25T06:18:08.607Z,5.17
2022-11-25T06:20:35.163Z,4.77
2022-11-25T06:23:01.584Z,5.37
2022-11-25T06:25:28.828Z,5.67
2022-11-25T06:28:12.466Z,5.80
2022-11-25T06:30:39.720Z,5.27
2022-11-25T06:33:06.147Z,4.93
2022-11-25T06:35:32.538Z,5.80
2022-11-25T06:37:59.567Z,5.53
2022-11-25T06:40:26.080Z,5.00
2022-11-25T06:42:52.657Z,4.80
2022-11-25T06:45:19.060Z,4.90
2022-11-25T06:47:45.735Z,4.73
2022-11-25T06:50:12.355Z,5.37
2022-11-25T06:52:38.799Z,5.47
2022-11-25T06:55:05.558Z,5.63
2022-11-25T06:57:32.024Z,4.70
2022-11-25T06:59:58.476Z,5.10
2022-11-25T07:02:24.976Z,5.20
2022-11-25T07:04:51.418Z,5.17
2022-11-25T07:07:17.875Z,4.60
2022-11-25T07:09:44.332Z,4.77
2022-11-25T07:12:12.369Z,5.33
2022-11-25T07:14:39.053Z,4.90
2022-11-25T07:17:10.467Z,4.23
2022-11-25T07:19:38.572Z,5.10
2022-11-25T07:22:05.036Z,5.37
2022-11-25T07:24:31.536Z,4.63
2022-11-25T07:26:58.014Z,4.67
2022-11-25T07:32:11.198Z,5.27
2022-11-25T07:34:38.202Z,4.83
2022-11-25T07:37:04.637Z,5.03
2022-11-25T07:39:31.115Z,5.03
2022-11-25T07:41:57.605Z,4.07
2022-11-25T07:44:24.063Z,5.73
2022-11-25T07:46:51.470Z,4.73
2022-11-25T07:49:20.680Z,4.60
2022-11-25T07:51:53.707Z,5.33
2022-11-25T07:54:21.719Z,6.13
2022-11-25T07:56:49.705Z,4.50
2022-11-25T07:59:19.102Z,5.10
2022-11-25T08:01:45.900Z,5.47
2022-11-25T08:04:19.498Z,4.87
2022-11-25T08:06:47.702Z,4.57
2022-11-25T08:09:20.527Z,5.20
2022-11-25T08:11:47.319Z,4.30
2022-11-25T08:14:14.733Z,4.90
2022-11-25T08:16:41.182Z,4.27
2022-11-25T08:19:11.400Z,4.90
2022-11-25T08:21:38.018Z,5.43
2022-11-25T08:24:05.331Z,4.80
2022-11-25T08:26:36.227Z,5.37
2022-11-25T08:29:04.037Z,4.57
2022-11-25T08:31:33.405Z,4.63
2022-11-25T08:34:00.479Z,5.10
2022-11-25T08:36:28.976Z,5.63
2022-11-25T08:38:59.796Z,5.07
2022-11-25T08:41:29.665Z,4.90
2022-11-25T08:43:57.536Z,5.50
2022-11-25T08:46:27.899Z,5.50
2022-11-25T08:48:55.120Z,5.27
2022-11-25T08:51:25.683Z,5.70
2022-11-25T08:53:52.238Z,5.23
2022-11-25T08:56:25.492Z,4.97
2022-11-25T08:58:52.666Z,5.70
2022-11-25T09:01:20.342Z,5.50
2022-11-25T09:03:49.178Z,4.83
2022-11-25T09:06:15.810Z,4.93
2022-11-25T09:08:43.516Z,4.93
2022-11-25T09:11:10.972Z,5.47
2022-11-25T09:13:37.781Z,4.93
2022-11-25T09:16:04.683Z,4.67
2022-11-25T09:18:32.483Z,4.87
2022-11-25T09:20:59.330Z,4.40
2022-11-25T09:23:26.440Z,4.87
2022-11-25T09:25:54.703Z,5.53
2022-11-25T09:28:21.893Z,5.37
2022-11-25T09:30:48.725Z,5.60
2022-11-25T09:33:15.403Z,5.30
2022-11-25T09:35:42.273Z,5.10
2022-11-25T09:38:08.664Z,5.10
2022-11-25T09:40:55.628Z,4.80
2022-11-25T09:43:53.506Z,5.27
2022-11-25T09:46:46.079Z,4.13
2022-11-25T09:49:28.271Z,4.90
2022-11-25T09:51:57.671Z,5.00
2022-11-25T09:54:34.912Z,4.23
2022-11-25T09:57:38.541Z,4.67
2022-11-25T10:00:38.960Z,4.50
2022-11-25T10:03:25.388Z,4.53
2022-11-25T10:06:00.873Z,4.00
2022-11-25T10:08:31.100Z,5.47
2022-11-25T10:11:17.524Z,4.83
2022-11-25T10:13:55.259Z,5.63
2022-11-25T10:16:30.376Z,5.87
2022-11-25T10:19:13.830Z,5.10
2022-11-25T10:21:40.221Z,5.00
2022-11-25T10:24:12.902Z,5.07
2022-11-25T10:26:44.125Z,4.87
2022-11-25T10:29:13.611Z,5.33
2022-11-25T10:31:42.326Z,4.33
2022-11-25T10:34:24.128Z,5.00
2022-11-25T10:36:51.786Z,4.50
2022-11-25T10:39:24.566Z,5.03
2022-11-25T10:41:57.034Z,4.60
2022-11-25T10:44:25.065Z,5.03
2022-11-25T10:47:20.013Z,5.90
2022-11-25T10:50:00.917Z,4.90
2022-11-25T10:52:30.640Z,4.07
2022-11-25T10:55:09.526Z,4.43
2022-11-25T10:57:36.123Z,5.17
2022-11-25T11:00:05.753Z,5.33
2022-11-25T11:02:41.711Z,4.33
2022-11-25T11:05:08.071Z,4.27
2022-11-25T11:07:38.512Z,5.00
2022-11-25T11:10:25.390Z,5.30
2022-11-25T11:12:59.076Z,4.70
2022-11-25T11:15:28.942Z,5.27
2022-11-25T11:17:57.011Z,5.27
2022-11-25T11:20:30.244Z,4.93
2022-11-25T11:22:58.311Z,4.60
2022-11-25T11:25:30.544Z,5.07
2022-11-25T11:27:57.545Z,4.87
2022-11-25T11:30:27.116Z,5.17
2022-11-25T11:33:01.338Z,5.60
2022-11-25T11:35:50.487Z,4.90
2022-11-25T11:38:38.183Z,5.20
2022-11-25T11:41:21.606Z,4.97
2022-11-25T11:44:17.390Z,5.10
2022-11-25T11:46:59.417Z,5.00
2022-11-25T11:49:45.533Z,5.10
2022-11-25T11:52:30.723Z,4.93
2022-11-25T11:55:17.954Z,4.60
2022-11-25T11:58:14.801Z,5.03
2022-11-25T12:01:05.987Z,5.23
2022-11-25T12:03:38.952Z,6.00
2022-11-25T12:06:06.462Z,5.43
2022-11-25T12:08:46.968Z,6.27
2022-11-25T12:11:36.076Z,6.83
2022-11-25T12:14:31.746Z,7.23
2022-11-25T12:17:01.293Z,7.27
2022-11-25T12:19:33.627Z,9.70
2022-11-25T12:22:20.589Z,9.00
2022-11-25T12:24:54.151Z,9.50
2022-11-25T12:27:28.076Z,9.23
2022-11-25T12:30:22.506Z,8.73
2022-11-25T12:33:07.201Z,9.80
2022-11-25T12:35:37.377Z,10.67
2022-11-25T12:38:12.992Z,9.53
2022-11-25T12:40:54.480Z,10.30
2022-11-25T12:43:40.488Z,10.43
2022-11-25T12:46:16.186Z,10.87
2022-11-25T12:48:43.302Z,9.77
2022-11-25T12:51:17.091Z,10.73
2022-11-25T12:54:04.133Z,11.10
2022-11-25T12:57:14.638Z,11.10
2022-11-25T13:00:24.964Z,10.80
2022-11-25T13:03:21.850Z,10.77
2022-11-25T13:06:10.644Z,11.40
2022-11-25T13:08:49.214Z,11.33
2022-11-25T13:11:34.184Z,11.60
2022-11-25T13:14:13.202Z,12.10
2022-11-25T13:16:41.656Z,12.20
2022-11-25T13:19:09.406Z,12.03
2022-11-25T13:21:35.859Z,12.10
2022-11-25T13:24:03.315Z,12.00
2022-11-25T13:26:29.785Z,12.70
2022-11-25T13:28:56.916Z,12.33
2022-11-25T13:31:34.815Z,12.60
2022-11-25T13:34:29.529Z,12.00
2022-11-25T13:36:58.044Z,12.67
2022-11-25T13:39:24.378Z,11.73
2022-11-25T13:42:12.830Z,11.83
2022-11-25T13:44:56.911Z,11.23
2022-11-25T13:47:38.749Z,11.70
2022-11-25T13:50:21.978Z,12.67
2022-11-25T13:52:57.573Z,12.70
2022-11-25T13:55:41.605Z,12.70
2022-11-25T13:58:10.929Z,11.67
2022-11-25T14:00:37.300Z,11.40
2022-11-25T14:03:19.137Z,12.17
2022-11-25T14:06:12.347Z,13.30
2022-11-25T14:08:53.985Z,12.10
2022-11-25T14:11:42.144Z,13.17
2022-11-25T14:14:48.056Z,12.53
2022-11-25T14:17:15.947Z,12.03
2022-11-25T14:19:54.619Z,13.47
2022-11-25T14:22:39.931Z,12.23
2022-11-25T14:25:27.586Z,12.43
2022-11-25T14:28:04.867Z,11.93
2022-11-25T14:30:32.706Z,12.90
2022-11-25T14:33:03.209Z,11.47
2022-11-25T14:35:40.324Z,13.57
2022-11-25T14:38:19.609Z,12.77
2022-11-25T14:41:00.630Z,12.00
2022-11-25T14:43:28.506Z,13.03
2022-11-25T14:46:20.710Z,12.80
2022-11-25T14:48:54.085Z,12.97
2022-11-25T14:51:20.957Z,13.33
2022-11-25T14:53:48.901Z,13.77
2022-11-25T14:56:26.086Z,13.67
2022-11-25T14:58:54.464Z,13.97
2022-11-25T15:01:29.041Z,14.63
2022-11-25T15:04:15.978Z,14.63
2022-11-25T15:06:47.421Z,13.23
2022-11-25T15:09:20.327Z,13.03
2022-11-25T15:11:47.028Z,12.43
2022-11-25T15:14:28.611Z,13.43
2022-11-25T15:16:56.345Z,13.50
2022-11-25T15:19:30.598Z,14.20
2022-11-25T15:24:54.673Z,14.10
2022-11-25T15:27:28.470Z,13.23
2022-11-25T15:29:56.300Z,13.73
2022-11-25T15:32:25.962Z,14.07
2022-11-25T15:34:53.647Z,14.83
2022-11-25T15:37:20.204Z,13.23
2022-11-25T15:39:49.453Z,14.53
2022-11-25T15:42:26.600Z,14.97
2022-11-25T15:44:55.109Z,14.43
2022-11-25T15:47:32.063Z,14.50
2022-11-25T15:50:13.401Z,13.43
2022-11-25T15:52:40.579Z,13.77
2022-11-25T15:55:08.418Z,12.93
2022-11-25T15:57:36.342Z,12.97
2022-11-25T16:00:16.620Z,14.27
2022-11-25T16:02:43.017Z,12.93
2022-11-25T16:05:12.216Z,13.50
2022-11-25T16:07:54.830Z,13.70
2022-11-25T16:10:31.611Z,14.50
2022-11-25T16:13:21.782Z,13.07
2022-11-25T16:15:52.799Z,14.97
2022-11-25T16:21:17.682Z,13.90
2022-11-25T16:23:46.292Z,12.47
2022-11-25T16:26:12.654Z,13.83
2022-11-25T16:28:49.664Z,13.43
2022-11-25T16:31:20.092Z,14.07
2022-11-25T16:33:46.643Z,13.80
2022-11-25T16:36:13.446Z,13.53
2022-11-25T16:38:39.852Z,13.20
2022-11-25T16:41:14.652Z,12.90
2022-11-25T16:43:41.089Z,12.60
2022-11-25T16:46:07.747Z,12.33
2022-11-25T16:48:34.445Z,13.00
2022-11-25T16:51:01.035Z,13.50
2022-11-25T16:53:27.716Z,12.97
2022-11-25T16:55:54.215Z,11.93
2022-11-25T16:58:24.418Z,13.10
2022-11-25T17:00:53.138Z,11.87
2022-11-25T17:03:20.765Z,10.97
2022-11-25T17:05:47.954Z,11.77
2022-11-25T17:08:15.135Z,11.27
2022-11-25T17:10:43.361Z,12.00
2022-11-25T17:13:17.628Z,11.90
2022-11-25T17:15:44.232Z,11.83
2022-11-25T17:18:12.406Z,10.53
2022-11-25T17:20:38.985Z,10.23
2022-11-25T17:23:11.696Z,11.00
2022-11-25T17:25:38.110Z,11.87
2022-11-25T17:28:04.815Z,10.90
2022-11-25T17:30:32.432Z,11.23
2022-11-25T17:33:04.275Z,10.20
2022-11-25T17:35:30.753Z,9.87
2022-11-25T17:38:00.668Z,10.57
2022-11-25T17:40:27.203Z,9.93
2022-11-25T17:42:53.729Z,9.67
2022-11-25T17:45:21.735Z,9.33
2022-11-25T17:47:48.498Z,10.17
2022-11-25T17:50:14.902Z,9.20
2022-11-25T17:52:41.346Z,9.53
2022-11-25T17:55:08.140Z,9.47
2022-11-25T17:57:34.671Z,9.33
2022-11-25T18:00:01.556Z,8.43
2022-11-25T18:02:28.289Z,8.87
2022-11-25T18:04:55.198Z,8.87
2022-11-25T18:07:21.821Z,8.50
2022-11-25T18:09:48.378Z,9.97
2022-11-25T18:12:27.813Z,8.10
2022-11-25T18:14:55.290Z,8.40
2022-11-25T18:17:21.801Z,8.50
2022-11-25T18:19:54.544Z,7.80
2022-11-25T18:22:24.043Z,9.23
2022-11-25T18:24:50.811Z,9.33
2022-11-25T18:27:32.025Z,9.33
2022-11-25T18:29:58.899Z,9.10
2022-11-25T18:32:25.570Z,10.47
2022-11-25T18:34:52.328Z,11.10
2022-11-25T18:37:18.724Z,9.60
2022-11-25T18:39:45.128Z,10.13
2022-11-25T18:42:24.811Z,10.63
2022-11-25T18:44:51.433Z,10.30
2022-11-25T18:47:17.970Z,10.07
2022-11-25T18:49:44.347Z,9.57
2022-11-25T18:52:10.756Z,8.87
2022-11-25T18:54:37.375Z,11.00
2022-11-25T18:57:04.170Z,10.83
2022-11-25T18:59:33.795Z,9.77
2022-11-25T19:02:00.300Z,11.43
2022-11-25T19:04:26.894Z,9.90
2022-11-25T19:06:53.371Z,9.50
2022-11-25T19:09:19.764Z,10.00
2022-11-25T19:11:49.788Z,9.47
2022-11-25T19:14:29.889Z,9.30
2022-11-25T19:17:02.318Z,9.87
2022-11-25T19:19:28.754Z,9.80
2022-11-25T19:21:55.172Z,9.97
2022-11-25T19:24:21.643Z,9.97
2022-11-25T19:26:50.771Z,10.70
2022-11-25T19:29:20.068Z,10.53
2022-11-25T19:31:47.234Z,11.23
2022-11-25T19:34:24.830Z,10.50
2022-11-25T19:36:51.387Z,10.50
2022-11-25T19:39:18.616Z,12.60
2022-11-25T19:41:45.373Z,12.50
2022-11-25T19:44:11.843Z,11.43
2022-11-25T19:47:12.985Z,11.20
2022-11-25T19:49:28.456Z,11.37
2022-11-25T19:51:55.775Z,10.93
2022-11-25T19:54:22.182Z,9.73
2022-11-25T19:56:49.247Z,10.00
2022-11-25T19:59:15.803Z,10.07
2022-11-25T20:01:43.824Z,11.43
2022-11-25T20:04:16.916Z,11.00
2022-11-25T20:06:43.484Z,11.10
2022-11-25T20:09:13.072Z,10.87
2022-11-25T20:11:39.651Z,10.70
2022-11-25T20:14:06.169Z,11.30
2022-11-25T20:16:39.659Z,11.20
2022-11-25T20:19:07.615Z,11.87
2022-11-25T20:21:37.020Z,11.90
2022-11-25T20:24:04.990Z,11.40
2022-11-25T20:26:37.082Z,10.97
2022-11-25T20:29:14.986Z,11.23
2022-11-25T20:31:41.552Z,10.70
2022-11-25T20:34:08.058Z,11.23
2022-11-25T20:36:34.643Z,11.87
2022-11-25T20:39:01.996Z,11.70
2022-11-25T20:41:29.073Z,10.70
2022-11-25T20:43:56.626Z,11.10
2022-11-25T20:46:26.185Z,11.73
2022-11-25T20:48:55.974Z,12.17
2022-11-25T20:51:23.297Z,10.77
2022-11-25T20:53:52.363Z,12.30
2022-11-25T20:56:21.203Z,13.43
2022-11-25T20:58:48.057Z,12.43
2022-11-25T21:01:15.494Z,10.80
2022-11-25T21:03:42.915Z,11.37
2022-11-25T21:06:30.019Z,11.37
2022-11-25T21:09:01.282Z,11.17
2022-11-25T21:11:28.211Z,10.70
2022-11-25T21:13:54.660Z,11.90
2022-11-25T21:16:21.214Z,11.63
2022-11-25T21:18:47.676Z,12.00
2022-11-25T21:21:16.754Z,12.30
2022-11-25T21:23:44.211Z,12.93
2022-11-25T21:26:17.924Z,12.67
2022-11-25T21:28:45.859Z,12.53
2022-11-25T21:31:21.926Z,11.33
2022-11-25T21:33:49.294Z,11.03
2022-11-25T21:36:21.834Z,12.33
2022-11-25T21:38:50.373Z,11.30
2022-11-25T21:41:17.203Z,11.73
2022-11-25T21:43:45.725Z,11.57
2022-11-25T21:46:14.724Z,11.97
2022-11-25T21:48:41.428Z,11.60
2022-11-25T21:51:10.638Z,12.13
2022-11-25T21:53:37.566Z,12.33
2022-11-25T21:56:06.327Z,11.57
2022-11-25T21:58:32.860Z,11.90
2022-11-25T22:01:01.221Z,12.43
2022-11-25T22:03:30.283Z,11.63
2022-11-25T22:05:56.762Z,12.03
2022-11-25T22:08:23.876Z,11.90
2022-11-25T22:10:51.701Z,12.33
2022-11-25T22:13:21.405Z,12.37
2022-11-25T22:15:51.556Z,13.27
2022-11-25T22:18:22.232Z,13.43
2022-11-25T22:20:53.299Z,14.17
2022-11-25T22:23:20.761Z,13.63
2022-11-25T22:25:48.306Z,12.70
2022-11-25T22:28:15.725Z,12.83
2022-11-25T22:30:46.473Z,12.80
2022-11-25T22:33:13.896Z,12.97
2022-11-25T22:35:40.437Z,12.73
2022-11-25T22:38:13.991Z,13.77
2022-11-25T22:40:42.415Z,14.17
2022-11-25T22:43:16.213Z,14.17
2022-11-25T22:45:42.692Z,13.50
2022-11-25T22:48:15.756Z,14.40
2022-11-25T22:50:43.252Z,13.50
2022-11-25T22:53:14.648Z,13.27
2022-11-25T22:55:41.470Z,13.50
2022-11-25T22:58:08.173Z,13.07
2022-11-25T23:00:38.335Z,13.83
2022-11-25T23:03:06.905Z,13.80
2022-11-25T23:05:35.683Z,13.87
2022-11-25T23:08:10.416Z,13.80
2022-11-25T23:10:36.803Z,12.83
2022-11-25T23:13:03.238Z,14.23
2022-11-25T23:15:29.993Z,13.37
2022-11-25T23:18:01.618Z,13.63
2022-11-25T23:20:29.252Z,12.90
2022-11-25T23:22:56.313Z,12.50
2022-11-25T23:25:23.381Z,14.23
2022-11-25T23:27:50.138Z,12.97
2022-11-25T23:30:21.598Z,13.53
2022-11-25T23:32:52.560Z,12.73
2022-11-25T23:35:21.160Z,12.63
2022-11-25T23:37:55.090Z,12.87
2022-11-25T23:40:22.648Z,12.47
2022-11-25T23:42:49.509Z,13.37
2022-11-25T23:45:19.358Z,12.87
2022-11-25T23:47:48.496Z,13.77
2022-11-25T23:50:18.599Z,14.20
2022-11-25T23:52:45.095Z,13.70
2022-11-25T23:55:19.571Z,15.20
2022-11-25T23:57:47.404Z,14.33
